Time;durP1;ratioP1;P1;durP2;ratioP2;P2;SDS_P1;SDS_P2;PMS_P1;PMS_P2;Temp;Humidity;BMP_temperature;BMP_pressure;BME280_temperature;BME280_humidity;BME280_pressure;Samples;Min_cycle;Max_cycle;Signal;HPM_P1;HPM_P2
2023/02/17 00:00:34;;;;;;;28.17;20.23;;;10.90;99.90;;;;;;5054067;28;20387;-86
2023/02/17 00:03:00;;;;;;;32.50;21.35;;;10.00;99.90;;;;;;5064787;28;20021;-87
2023/02/17 00:05:27;;;;;;;33.08;21.52;;;10.00;99.90;;;;;;5053584;28;20021;-87
2023/02/17 00:07:53;;;;;;;26.55;19.25;;;10.40;99.90;;;;;;5053774;28;20040;-87
2023/02/17 00:10:19;;;;;;;29.55;19.05;;;10.50;99.90;;;;;;5053847;28;20056;-87
2023/02/17 00:12:44;;;;;;;31.33;18.95;;;10.50;99.90;;;;;;5053019;28;20048;-87
2023/02/17 00:15:10;;;;;;;32.67;18.50;;;10.50;99.90;;;;;;5058648;28;20107;-88
2023/02/17 00:17:35;;;;;;;30.60;17.20;;;9.90;99.90;;;;;;5058769;28;20035;-87
2023/02/17 00:20:01;;;;;;;32.33;19.42;;;10.50;99.90;;;;;;5072907;28;20078;-87
2023/02/17 00:22:27;;;;;;;34.47;18.98;;;11.20;99.90;;;;;;5073718;28;20077;-87
2023/02/17 00:24:52;;;;;;;34.28;19.55;;;9.70;99.90;;;;;;5072934;28;20032;-87
2023/02/17 00:27:18;;;;;;;40.00;22.63;;;9.70;99.90;;;;;;5073269;28;20047;-88
2023/02/17 00:29:44;;;;;;;41.22;23.05;;;10.50;99.90;;;;;;5072826;28;20025;-86
2023/02/17 00:32:10;;;;;;;45.60;23.13;;;10.50;99.90;;;;;;5072578;28;20115;-86
2023/02/17 00:34:36;;;;;;;44.83;22.23;;;10.80;99.90;;;;;;5072964;28;20028;-87
2023/02/17 00:37:02;;;;;;;40.03;22.30;;;10.40;99.90;;;;;;5073306;28;20548;-88
2023/02/17 00:39:28;;;;;;;41.33;22.52;;;10.50;99.90;;;;;;5072637;28;20032;-87
2023/02/17 00:41:54;;;;;;;39.60;21.58;;;9.60;99.90;;;;;;5072920;28;20177;-87
2023/02/17 00:44:22;;;;;;;45.90;23.08;;;10.30;99.90;;;;;;5073182;28;20373;-86
2023/02/17 00:46:56;;;;;;;56.35;23.90;;;9.60;99.90;;;;;;5071957;28;20468;-87
2023/02/17 00:49:23;;;;;;;44.33;21.33;;;10.30;99.90;;;;;;5073142;28;20491;-87
2023/02/17 00:51:50;;;;;;;46.97;21.98;;;10.10;99.90;;;;;;5072715;28;20037;-87
2023/02/17 00:54:16;;;;;;;47.30;21.65;;;9.40;99.90;;;;;;5072713;28;20021;-86
2023/02/17 00:56:42;;;;;;;60.08;23.17;;;10.20;99.90;;;;;;5072303;28;20128;-86
2023/02/17 00:59:09;;;;;;;52.05;22.00;;;10.10;99.90;;;;;;5072747;28;20464;-87
2023/02/17 01:01:36;;;;;;;48.22;22.50;;;10.20;99.90;;;;;;5072154;28;20052;-88
2023/02/17 01:04:03;;;;;;;59.50;23.38;;;10.00;99.90;;;;;;5072648;28;20021;-86
2023/02/17 01:06:34;;;;;;;53.33;21.60;;;9.30;99.90;;;;;;5072403;28;20461;-87
2023/02/17 01:09:01;;;;;;;54.42;22.38;;;10.40;99.90;;;;;;5072432;28;20034;-86
2023/02/17 01:11:29;;;;;;;56.78;23.00;;;10.70;99.90;;;;;;5072547;28;20034;-87
2023/02/17 01:13:55;;;;;;;50.55;21.00;;;9.20;99.90;;;;;;5072618;28;20120;-87
2023/02/17 01:16:23;;;;;;;49.55;20.17;;;9.70;99.90;;;;;;5072185;28;20075;-87
2023/02/17 01:18:48;;;;;;;52.92;21.42;;;9.60;99.90;;;;;;5072260;28;20029;-86
2023/02/17 01:21:19;;;;;;;49.65;20.85;;;9.30;99.90;;;;;;5071795;28;20361;-86
2023/02/17 01:23:47;;;;;;;45.83;20.77;;;10.10;99.90;;;;;;5072238;28;20048;-87
2023/02/17 01:26:15;;;;;;;51.65;20.20;;;9.40;99.90;;;;;;5072533;28;20027;-86
2023/02/17 01:28:40;;;;;;;47.05;20.85;;;9.90;99.90;;;;;;5071460;28;20535;-86
2023/02/17 01:31:10;;;;;;;49.22;21.13;;;10.00;99.90;;;;;;5072699;28;20139;-86
2023/02/17 01:33:37;;;;;;;48.83;21.73;;;9.70;99.90;;;;;;5072102;28;20031;-87
2023/02/17 01:36:08;;;;;;;44.25;20.98;;;10.10;99.90;;;;;;5071691;28;20075;-87
2023/02/17 01:38:35;;;;;;;58.13;21.58;;;9.20;99.90;;;;;;5071759;28;20082;-87
2023/02/17 01:41:01;;;;;;;52.88;20.10;;;10.70;99.90;;;;;;5072451;28;20041;-86
2023/02/17 01:43:27;;;;;;;42.28;19.95;;;9.80;99.90;;;;;;5071991;28;20379;-86
2023/02/17 01:46:00;;;;;;;40.17;17.85;;;10.20;99.90;;;;;;5071915;28;20487;-87
2023/02/17 01:48:28;;;;;;;44.45;19.52;;;10.10;99.90;;;;;;5072222;28;20028;-86
2023/02/17 01:51:07;;;;;;;40.40;17.65;;;9.70;99.90;;;;;;5071464;28;20036;-87
2023/02/17 01:53:44;;;;;;;41.10;18.48;;;9.30;99.90;;;;;;5071946;28;20025;-86
2023/02/17 01:56:11;;;;;;;47.20;18.85;;;9.30;99.90;;;;;;5072315;28;20044;-86
2023/02/17 01:58:40;;;;;;;36.75;18.42;;;9.20;99.90;;;;;;5071215;28;20135;-86
2023/02/17 02:01:06;;;;;;;40.35;18.83;;;10.00;99.90;;;;;;5072282;28;20032;-86
2023/02/17 02:03:35;;;;;;;41.63;17.45;;;9.30;99.90;;;;;;5071123;28;20021;-85
2023/02/17 02:06:05;;;;;;;33.30;16.25;;;9.20;99.90;;;;;;5071835;28;20104;-86
2023/02/17 02:08:41;;;;;;;34.17;17.48;;;9.20;99.90;;;;;;5072167;28;20024;-86
2023/02/17 02:11:07;;;;;;;32.05;15.60;;;9.90;99.90;;;;;;5071588;28;20170;-87
2023/02/17 02:13:32;;;;;;;34.28;16.80;;;10.00;99.90;;;;;;5071898;28;20111;-87
2023/02/17 02:16:21;;;;;;;42.25;19.58;;;10.20;99.90;;;;;;5072168;28;20464;-87
2023/02/17 02:18:58;;;;;;;36.20;19.20;;;9.30;99.90;;;;;;5070609;28;20443;-87
2023/02/17 02:21:27;;;;;;;30.45;18.20;;;9.30;99.90;;;;;;5073460;28;20111;-87
2023/02/17 02:24:17;;;;;;;40.35;18.38;;;10.10;99.90;;;;;;5071564;28;20488;-87
2023/02/17 02:27:10;;;;;;;36.15;17.77;;;10.10;99.90;;;;;;5071079;28;20109;-86
2023/02/17 02:29:45;;;;;;;41.33;17.95;;;9.20;99.90;;;;;;5071702;28;20081;-88
2023/02/17 02:32:35;;;;;;;38.10;19.05;;;9.20;99.90;;;;;;5071360;28;20025;-87
2023/02/17 02:35:07;;;;;;;36.40;19.10;;;9.20;99.90;;;;;;5071731;28;20155;-87
2023/02/17 02:37:42;;;;;;;52.40;21.90;;;9.30;99.90;;;;;;5071614;28;20028;-87
2023/02/17 02:40:09;;;;;;;51.70;21.25;;;9.30;99.90;;;;;;5071667;28;20025;-88
2023/02/17 02:42:35;;;;;;;45.75;19.48;;;9.20;99.90;;;;;;5071326;28;20472;-87
2023/02/17 02:45:04;;;;;;;37.75;18.67;;;9.80;99.90;;;;;;5071769;28;20029;-87
2023/02/17 02:47:46;;;;;;;46.35;21.63;;;9.20;99.90;;;;;;5070882;28;20499;-87
2023/02/17 02:50:20;;;;;;;57.13;22.33;;;9.20;99.90;;;;;;5072695;28;20032;-87
2023/02/17 02:53:16;;;;;;;56.42;24.67;;;10.10;99.90;;;;;;5074519;28;20024;-87
2023/02/17 02:56:00;;;;;;;59.97;26.55;;;9.20;99.90;;;;;;5071922;28;20075;-87
2023/02/17 02:58:57;;;;;;;62.38;26.15;;;9.20;99.90;;;;;;5054919;28;20044;-87
2023/02/17 03:01:35;;;;;;;65.60;29.15;;;9.20;99.90;;;;;;5054564;28;20086;-87
2023/02/17 03:04:30;;;;;;;59.85;29.25;;;10.00;99.90;;;;;;5073760;28;20143;-84
2023/02/17 03:07:02;;;;;;;62.13;30.15;;;9.30;99.90;;;;;;5074072;28;20052;-87
2023/02/17 03:09:28;;;;;;;70.88;32.70;;;9.40;99.90;;;;;;5054935;28;20027;-87
2023/02/17 03:11:56;;;;;;;75.07;35.28;;;9.30;99.90;;;;;;5054437;28;20040;-86
2023/02/17 03:14:22;;;;;;;75.85;34.45;;;9.90;99.90;;;;;;5054247;28;20029;-85
2023/02/17 03:16:49;;;;;;;93.93;38.97;;;9.30;99.90;;;;;;5054393;28;20029;-86
2023/02/17 03:19:17;;;;;;;73.90;34.65;;;10.30;99.90;;;;;;5054509;28;20418;-87
2023/02/17 03:21:48;;;;;;;69.65;35.63;;;9.40;99.90;;;;;;5071395;28;20082;-87
2023/02/17 03:24:14;;;;;;;65.28;34.35;;;10.00;99.90;;;;;;5074633;28;20073;-87
2023/02/17 03:26:39;;;;;;;63.63;34.35;;;10.00;99.90;;;;;;5074372;28;20016;-87
2023/02/17 03:29:05;;;;;;;61.03;32.25;;;10.10;99.90;;;;;;5074048;28;20025;-88
2023/02/17 03:31:31;;;;;;;56.42;29.65;;;9.50;99.90;;;;;;5074594;28;20418;-86
2023/02/17 03:33:57;;;;;;;60.42;30.40;;;10.30;99.90;;;;;;5074278;28;20028;-88
2023/02/17 03:36:23;;;;;;;52.30;29.63;;;10.40;99.90;;;;;;5073907;28;20036;-86
2023/02/17 03:38:49;;;;;;;50.05;27.92;;;10.40;99.90;;;;;;5074215;28;20020;-88
2023/02/17 03:41:14;;;;;;;49.15;26.95;;;10.50;99.90;;;;;;5074383;28;20017;-87
2023/02/17 03:43:40;;;;;;;44.92;25.23;;;10.50;99.90;;;;;;5073465;28;20163;-87
2023/02/17 03:46:10;;;;;;;43.22;24.27;;;9.70;99.90;;;;;;5074251;28;20033;-87
2023/02/17 03:48:36;;;;;;;39.90;23.38;;;10.40;99.90;;;;;;5073781;28;20032;-87
2023/02/17 03:51:14;;;;;;;41.00;21.92;;;10.50;99.90;;;;;;5055963;28;20021;-87
2023/02/17 03:53:40;;;;;;;41.70;22.08;;;9.70;99.90;;;;;;5053633;28;20029;-86
2023/02/17 03:56:06;;;;;;;33.50;21.35;;;10.30;99.90;;;;;;5053187;28;20029;-87
2023/02/17 03:58:32;;;;;;;35.67;19.98;;;9.70;99.90;;;;;;5053782;28;20040;-88
2023/02/17 04:00:57;;;;;;;35.28;20.30;;;9.80;99.90;;;;;;5053119;28;20029;-88
2023/02/17 04:03:23;;;;;;;35.47;20.20;;;9.60;99.90;;;;;;5053788;28;20029;-88
2023/02/17 04:05:48;;;;;;;36.78;20.05;;;9.70;99.90;;;;;;5053473;28;20021;-87
2023/02/17 04:08:14;;;;;;;36.28;20.73;;;9.80;99.90;;;;;;5053786;28;20025;-87
2023/02/17 04:10:40;;;;;;;38.58;20.95;;;9.80;99.90;;;;;;5052704;28;20079;-87
2023/02/17 04:13:05;;;;;;;40.22;20.42;;;10.00;99.90;;;;;;5053789;28;20021;-88
2023/02/17 04:15:31;;;;;;;31.98;19.65;;;10.30;99.90;;;;;;5053654;28;20037;-88
2023/02/17 04:17:56;;;;;;;36.65;20.13;;;10.30;99.90;;;;;;5052575;28;20029;-86
2023/02/17 04:20:22;;;;;;;33.88;20.95;;;9.10;99.90;;;;;;5053562;28;20116;-87
2023/02/17 04:22:51;;;;;;;40.90;22.77;;;9.70;99.90;;;;;;5053524;28;20013;-87
2023/02/17 04:25:16;;;;;;;42.78;22.20;;;10.50;99.90;;;;;;5052375;28;20435;-87
2023/02/17 04:27:42;;;;;;;40.75;23.75;;;10.60;99.90;;;;;;5053218;28;20021;-87
2023/02/17 04:30:08;;;;;;;44.63;24.13;;;10.00;99.90;;;;;;5053572;28;20481;-87
2023/02/17 04:32:34;;;;;;;51.20;23.58;;;9.70;99.90;;;;;;5052227;28;20025;-87
2023/02/17 04:34:59;;;;;;;48.65;24.48;;;9.70;99.90;;;;;;5053229;28;20385;-88
2023/02/17 04:37:25;;;;;;;42.15;24.10;;;10.00;99.90;;;;;;5052957;28;20074;-88
2023/02/17 04:39:50;;;;;;;47.08;25.75;;;9.60;99.90;;;;;;5052208;28;20111;-86
2023/02/17 04:42:16;;;;;;;51.17;24.08;;;10.50;99.90;;;;;;5053150;28;20473;-88
2023/02/17 04:44:41;;;;;;;47.40;25.35;;;10.30;99.90;;;;;;5052684;28;20021;-88
2023/02/17 04:47:07;;;;;;;42.53;24.95;;;9.70;99.90;;;;;;5051892;28;20025;-87
2023/02/17 04:49:32;;;;;;;51.20;25.70;;;10.40;99.90;;;;;;5052810;28;20106;-87
2023/02/17 04:51:58;;;;;;;51.90;25.95;;;9.80;99.90;;;;;;5052797;28;20033;-88
2023/02/17 04:54:23;;;;;;;46.10;24.50;;;10.70;99.90;;;;;;5052162;28;20353;-87
2023/02/17 04:56:49;;;;;;;49.30;25.83;;;10.10;99.90;;;;;;5052312;28;20492;-87
2023/02/17 04:59:15;;;;;;;45.30;24.23;;;9.80;99.90;;;;;;5052411;28;20021;-87
2023/02/17 05:01:40;;;;;;;42.15;24.65;;;10.50;99.90;;;;;;5052616;28;20064;-86
2023/02/17 05:04:06;;;;;;;50.65;26.83;;;11.00;99.90;;;;;;5052854;28;20028;-86
2023/02/17 05:06:31;;;;;;;46.72;25.38;;;9.50;99.90;;;;;;5052031;28;20143;-87
2023/02/17 05:08:57;;;;;;;45.58;25.75;;;10.50;99.90;;;;;;5052227;28;20017;-87
2023/02/17 05:11:23;;;;;;;53.60;26.42;;;9.80;99.90;;;;;;5052772;28;20033;-86
2023/02/17 05:13:48;;;;;;;47.17;26.80;;;9.80;99.90;;;;;;5051087;28;20025;-87
2023/02/17 05:16:14;;;;;;;48.90;27.27;;;9.80;99.90;;;;;;5052373;28;20098;-87
2023/02/17 05:18:39;;;;;;;51.50;27.15;;;9.80;99.90;;;;;;5052781;28;20104;-87
2023/02/17 05:21:05;;;;;;;55.47;26.55;;;10.70;99.90;;;;;;5051809;28;20530;-86
2023/02/17 05:23:31;;;;;;;52.00;28.35;;;10.00;99.90;;;;;;5052487;28;20033;-87
2023/02/17 05:25:56;;;;;;;62.75;29.30;;;10.50;99.90;;;;;;5051975;28;20391;-87
2023/02/17 05:28:22;;;;;;;55.97;27.63;;;9.80;99.90;;;;;;5051920;28;20537;-86
2023/02/17 05:30:48;;;;;;;59.80;28.88;;;10.40;99.90;;;;;;5052147;28;20029;-87
2023/02/17 05:33:14;;;;;;;52.00;27.75;;;9.70;99.90;;;;;;5052257;28;20052;-87
2023/02/17 05:35:39;;;;;;;56.90;28.38;;;9.60;99.90;;;;;;5051249;28;20067;-87
2023/02/17 05:38:05;;;;;;;59.70;27.63;;;10.50;99.90;;;;;;5052401;28;20510;-87
2023/02/17 05:40:31;;;;;;;61.78;27.27;;;10.10;99.90;;;;;;5052119;28;20132;-87
2023/02/17 05:42:56;;;;;;;56.47;26.92;;;9.80;99.90;;;;;;5051527;28;20479;-87
2023/02/17 05:45:22;;;;;;;53.72;26.20;;;10.70;99.90;;;;;;5052087;28;20376;-87
2023/02/17 05:47:47;;;;;;;62.72;27.25;;;10.80;99.90;;;;;;5051623;28;20023;-86
2023/02/17 05:50:13;;;;;;;64.20;26.98;;;10.60;99.90;;;;;;5051398;28;20029;-87
2023/02/17 05:52:39;;;;;;;57.17;26.35;;;9.90;99.90;;;;;;5051742;28;20493;-86
2023/02/17 05:55:05;;;;;;;47.10;23.63;;;10.80;99.90;;;;;;5051889;28;20059;-87
2023/02/17 05:57:31;;;;;;;45.58;24.17;;;9.90;99.90;;;;;;5051481;28;20045;-87
2023/02/17 05:59:56;;;;;;;48.65;24.77;;;10.80;99.90;;;;;;5051943;28;20449;-87
2023/02/17 06:02:22;;;;;;;44.63;22.38;;;10.70;99.90;;;;;;5052044;28;20036;-86
2023/02/17 06:04:47;;;;;;;43.75;22.88;;;10.70;99.90;;;;;;5051028;28;20429;-87
2023/02/17 06:07:13;;;;;;;51.20;21.95;;;10.40;99.90;;;;;;5051757;28;20388;-87
2023/02/17 06:09:39;;;;;;;47.67;22.35;;;10.30;99.90;;;;;;5050545;28;20025;-86
2023/02/17 06:12:04;;;;;;;40.50;22.48;;;11.50;99.90;;;;;;5051916;28;20029;-88
2023/02/17 06:14:30;;;;;;;50.35;24.17;;;10.00;99.90;;;;;;5051639;28;20025;-87
2023/02/17 06:16:56;;;;;;;44.95;22.25;;;11.50;99.90;;;;;;5051025;28;20025;-86
2023/02/17 06:19:22;;;;;;;45.25;22.55;;;10.30;99.90;;;;;;5051645;28;20544;-87
2023/02/17 06:21:48;;;;;;;52.22;24.23;;;10.10;99.90;;;;;;5051862;28;20469;-87
2023/02/17 06:24:13;;;;;;;43.97;22.15;;;10.50;99.90;;;;;;5070329;28;20025;-86
2023/02/17 06:26:45;;;;;;;49.42;22.40;;;10.00;99.90;;;;;;5055363;28;20025;-87
2023/02/17 06:29:11;;;;;;;38.15;22.05;;;10.10;99.90;;;;;;5055545;28;20059;-87
2023/02/17 06:31:42;;;;;;;46.67;21.00;;;10.80;99.90;;;;;;5067156;28;20048;-87
2023/02/17 06:34:08;;;;;;;43.38;21.80;;;10.40;99.90;;;;;;5075498;28;20025;-87
2023/02/17 06:36:33;;;;;;;42.08;22.15;;;10.90;99.90;;;;;;5074563;28;20109;-86
2023/02/17 06:38:59;;;;;;;39.85;21.15;;;10.10;99.90;;;;;;5074926;28;20017;-88
2023/02/17 06:41:25;;;;;;;44.00;20.65;;;10.90;99.90;;;;;;5072940;28;20047;-86
2023/02/17 06:43:53;;;;;;;41.67;20.95;;;11.00;99.90;;;;;;5078495;28;20040;-87
2023/02/17 06:46:19;;;;;;;36.80;19.58;;;10.80;99.90;;;;;;5083993;28;20109;-87
2023/02/17 06:48:50;;;;;;;38.25;20.50;;;11.30;99.90;;;;;;5077222;22;20061;-88
2023/02/17 06:51:22;;;;;;;33.03;17.92;;;10.80;99.90;;;;;;5057769;28;20032;-87
2023/02/17 06:53:50;;;;;;;34.78;18.10;;;10.80;99.90;;;;;;5065987;28;20017;-87
2023/02/17 06:56:16;;;;;;;33.55;17.30;;;10.80;99.90;;;;;;5065493;28;20422;-88
2023/02/17 06:58:41;;;;;;;24.88;15.77;;;11.00;99.90;;;;;;5061907;28;20020;-88
2023/02/17 07:01:21;;;;;;;31.98;17.13;;;10.70;99.90;;;;;;5064933;28;20383;-87
2023/02/17 07:03:50;;;;;;;29.50;15.83;;;10.20;99.90;;;;;;5053748;28;20032;-87
2023/02/17 07:06:19;;;;;;;30.58;17.52;;;10.80;99.90;;;;;;5052345;28;20028;-87
2023/02/17 07:08:54;;;;;;;24.23;16.92;;;10.60;99.90;;;;;;5052448;28;20096;-88
2023/02/17 07:11:21;;;;;;;36.90;17.92;;;10.40;99.90;;;;;;5052727;28;20017;-87
2023/02/17 07:13:47;;;;;;;23.13;16.52;;;11.10;99.90;;;;;;5053695;28;20021;-87
2023/02/17 07:16:13;;;;;;;24.67;16.77;;;10.30;99.90;;;;;;5067331;22;20056;-88
2023/02/17 07:18:39;;;;;;;28.85;17.02;;;10.90;99.90;;;;;;5068430;22;20036;-87
2023/02/17 07:21:11;;;;;;;28.80;17.63;;;10.30;99.90;;;;;;5073542;28;20058;-87
2023/02/17 07:23:38;;;;;;;23.83;15.63;;;10.90;99.90;;;;;;5074553;28;20403;-88
2023/02/17 07:26:07;;;;;;;27.70;16.23;;;10.50;99.90;;;;;;5074631;28;20052;-87
2023/02/17 07:28:33;;;;;;;28.92;17.27;;;10.30;99.90;;;;;;5073889;28;20052;-87
2023/02/17 07:31:11;;;;;;;30.30;17.85;;;11.10;99.90;;;;;;5082151;22;20528;-88
2023/02/17 07:33:37;;;;;;;27.20;17.92;;;11.20;99.90;;;;;;5074498;28;20025;-88
2023/02/17 07:36:07;;;;;;;26.77;16.85;;;11.70;99.90;;;;;;5080886;28;20036;-86
2023/02/17 07:38:36;;;;;;;24.50;16.77;;;10.30;99.90;;;;;;5074705;28;20090;-87
2023/02/17 07:41:21;;;;;;;24.60;17.42;;;10.70;99.90;;;;;;5073842;28;20025;-87
2023/02/17 07:43:47;;;;;;;27.90;17.35;;;10.40;99.90;;;;;;5074144;28;20102;-88
2023/02/17 07:46:13;;;;;;;30.20;19.50;;;11.10;99.90;;;;;;5074267;28;20024;-87
2023/02/17 07:48:39;;;;;;;31.48;19.50;;;11.10;99.90;;;;;;5073389;28;20051;-87
2023/02/17 07:51:11;;;;;;;31.35;19.02;;;11.00;99.90;;;;;;5074420;28;20040;-87
2023/02/17 07:53:37;;;;;;;31.13;18.52;;;11.10;99.90;;;;;;5073811;28;20033;-87
2023/02/17 07:56:09;;;;;;;33.20;17.70;;;11.20;99.90;;;;;;5073730;28;20120;-87
2023/02/17 07:58:36;;;;;;;21.20;16.00;;;11.60;99.90;;;;;;5073928;28;20025;-86
2023/02/17 08:01:20;;;;;;;24.38;16.45;;;10.70;99.90;;;;;;5074065;28;20025;-87
2023/02/17 08:03:47;;;;;;;23.20;16.88;;;10.50;99.90;;;;;;5073474;28;20056;-87
2023/02/17 08:06:16;;;;;;;22.25;15.52;;;10.50;99.90;;;;;;5073810;28;20426;-88
2023/02/17 08:14:14;;;;;;;18.83;15.18;;;10.50;99.90;;;;;;5074404;28;20031;-89
2023/02/17 08:16:39;;;;;;;20.90;15.07;;;11.40;99.90;;;;;;5073469;28;20036;-90
2023/02/17 08:19:07;;;;;;;25.33;15.65;;;11.40;99.90;;;;;;5074191;28;20021;-89
2023/02/17 08:21:46;;;;;;;18.95;14.30;;;11.70;99.90;;;;;;5073695;28;20056;-88
2023/02/17 08:24:12;;;;;;;26.60;15.80;;;11.10;99.90;;;;;;5073224;28;20500;-88
2023/02/17 08:26:41;;;;;;;20.20;14.23;;;11.30;99.90;;;;;;5080821;22;20067;-89
2023/02/17 08:29:06;;;;;;;17.55;13.60;;;11.40;99.90;;;;;;5071288;28;20032;-88
2023/02/17 08:31:34;;;;;;;16.98;12.27;;;10.60;99.90;;;;;;5072377;28;20112;-89
2023/02/17 08:34:03;;;;;;;15.02;12.75;;;11.40;99.90;;;;;;5083659;22;20102;-89
2023/02/17 08:36:43;;;;;;;19.27;12.95;;;11.00;99.90;;;;;;5043244;28;20040;-89
2023/02/17 08:39:13;;;;;;;16.60;12.88;;;11.50;99.90;;;;;;5043734;28;20040;-87
2023/02/17 08:41:39;;;;;;;15.65;11.57;;;10.60;99.90;;;;;;5044166;28;20025;-89
2023/02/17 08:44:16;;;;;;;15.48;11.90;;;10.90;99.90;;;;;;5047073;28;20380;-87
2023/02/17 08:46:42;;;;;;;15.20;11.27;;;10.70;99.90;;;;;;5046185;28;20353;-87
2023/02/17 08:49:08;;;;;;;14.95;11.45;;;11.40;99.90;;;;;;5053653;28;20110;-90
2023/02/17 08:51:37;;;;;;;16.77;12.15;;;11.20;99.90;;;;;;5043874;28;20701;-89
2023/02/17 08:54:05;;;;;;;21.58;12.32;;;10.60;99.90;;;;;;5047072;28;20104;-86
2023/02/17 08:56:38;;;;;;;17.52;12.40;;;10.60;99.90;;;;;;5045060;28;20032;-91
2023/02/17 08:59:13;;;;;;;21.58;12.50;;;11.50;99.90;;;;;;5040311;28;20469;-88
2023/02/17 09:01:40;;;;;;;15.20;12.00;;;11.20;99.90;;;;;;5045719;28;20017;-88
2023/02/17 09:04:15;;;;;;;16.95;12.00;;;11.40;99.90;;;;;;5047046;28;20026;-90
2023/02/17 09:06:46;;;;;;;14.82;11.80;;;11.50;99.90;;;;;;5040724;28;20048;-89
2023/02/17 09:09:18;;;;;;;13.77;11.13;;;11.40;99.90;;;;;;5061190;22;20049;-91
2023/02/17 09:11:44;;;;;;;15.27;11.45;;;11.30;99.90;;;;;;5085873;22;20072;-89
2023/02/17 09:14:22;;;;;;;11.98;10.77;;;10.50;99.90;;;;;;5073751;28;20024;-87
2023/02/17 09:16:51;;;;;;;21.10;11.35;;;12.00;99.90;;;;;;5072956;28;20136;-89
2023/02/17 09:19:20;;;;;;;15.15;11.50;;;11.80;99.90;;;;;;5073143;28;20040;-90
2023/02/17 09:21:45;;;;;;;20.52;12.50;;;10.70;99.90;;;;;;5069234;28;20071;-88
2023/02/17 09:24:11;;;;;;;25.15;12.93;;;10.70;99.90;;;;;;5053467;28;20025;-90
2023/02/17 09:26:37;;;;;;;17.38;12.77;;;11.30;99.90;;;;;;5054975;28;20113;-90
2023/02/17 09:29:09;;;;;;;15.70;12.45;;;10.60;99.90;;;;;;5076161;28;20028;-93
2023/02/17 09:31:37;;;;;;;18.70;11.52;;;11.50;99.90;;;;;;5074167;28;20103;-88
2023/02/17 09:34:04;;;;;;;15.35;12.32;;;11.50;99.90;;;;;;5072675;28;20043;-93
2023/02/17 09:36:36;;;;;;;14.43;9.80;;;11.90;99.90;;;;;;5073682;28;20032;-91
2023/02/17 09:39:02;;;;;;;17.55;10.10;;;9.50;99.90;;;;;;5053048;28;20025;-89
2023/02/17 09:41:47;;;;;;;17.02;11.20;;;10.60;99.90;;;;;;5051807;28;20075;-89
2023/02/17 09:44:20;;;;;;;12.98;9.90;;;11.20;99.90;;;;;;5052152;28;20258;-89
2023/02/17 09:47:04;;;;;;;17.30;12.60;;;11.40;99.90;;;;;;5052924;28;20045;-90
2023/02/17 09:49:50;;;;;;;17.27;12.68;;;11.20;99.90;;;;;;5071045;28;20032;-87
2023/02/17 09:52:35;;;;;;;19.08;12.50;;;11.20;99.90;;;;;;5073357;28;20031;-90
2023/02/17 09:55:05;;;;;;;21.73;13.13;;;10.60;99.90;;;;;;5073647;28;20024;-88
2023/02/17 09:57:42;;;;;;;26.63;14.13;;;10.50;99.90;;;;;;5075822;28;20032;-89
2023/02/17 10:00:24;;;;;;;20.15;12.82;;;11.40;99.90;;;;;;5076870;28;20024;-90
2023/02/17 10:03:17;;;;;;;19.30;12.27;;;10.80;99.90;;;;;;5077053;28;20029;-91
2023/02/17 10:06:00;;;;;;;19.52;12.02;;;10.60;99.90;;;;;;5077582;28;20020;-90
2023/02/17 10:08:48;;;;;;;16.38;11.40;;;10.70;99.90;;;;;;5078145;28;20029;-93
2023/02/17 10:11:22;;;;;;;19.13;11.77;;;10.70;99.90;;;;;;5078565;28;20049;-91
2023/02/17 10:13:58;;;;;;;25.40;12.00;;;11.70;99.90;;;;;;5079988;28;20029;-88
2023/02/17 10:16:46;;;;;;;17.40;11.30;;;11.10;99.90;;;;;;5078124;28;20033;-92
2023/02/17 10:19:35;;;;;;;22.02;12.25;;;10.80;99.90;;;;;;5079205;28;20027;-91
2023/02/17 10:22:36;;;;;;;17.35;11.05;;;11.30;99.90;;;;;;5092492;28;20058;-91
2023/02/17 10:25:17;;;;;;;20.17;10.77;;;11.00;99.90;;;;;;5023557;28;20052;-90
2023/02/17 10:27:55;;;;;;;14.98;10.20;;;10.80;99.90;;;;;;5015748;28;20034;-90
2023/02/17 10:30:59;;;;;;;19.45;10.63;;;10.90;99.90;;;;;;5015580;28;20034;-91
2023/02/17 10:33:49;;;;;;;20.02;10.30;;;10.80;99.90;;;;;;5051280;28;20033;-90
2023/02/17 10:36:50;;;;;;;16.00;9.32;;;10.70;99.90;;;;;;5062622;28;20035;-90
2023/02/17 10:39:57;;;;;;;26.67;10.38;;;10.80;99.90;;;;;;5073909;28;20027;-91
2023/02/17 10:42:43;;;;;;;15.23;10.20;;;10.20;99.90;;;;;;5076173;28;20067;-91
2023/02/17 10:45:30;;;;;;;21.90;11.50;;;11.40;99.90;;;;;;5074697;28;20020;-90
2023/02/17 10:48:15;;;;;;;15.98;10.82;;;10.80;99.90;;;;;;5056047;28;20025;-90
2023/02/17 10:53:48;;;;;;;18.80;11.50;;;11.60;99.90;;;;;;5065249;28;20044;-90
2023/02/17 10:56:38;;;;;;;15.07;10.20;;;11.30;99.90;;;;;;5073028;28;20075;-89
2023/02/17 10:59:27;;;;;;;15.77;11.05;;;10.70;99.90;;;;;;5073274;28;20398;-89
2023/02/17 11:02:18;;;;;;;19.15;10.85;;;10.90;99.90;;;;;;5074034;28;20036;-90
2023/02/17 11:04:50;;;;;;;14.75;9.90;;;10.80;99.90;;;;;;5099358;22;20048;-88
2023/02/17 11:07:18;;;;;;;14.20;9.93;;;10.80;99.90;;;;;;5073911;28;20111;-90
2023/02/17 11:10:00;;;;;;;16.70;10.45;;;11.50;99.90;;;;;;5066337;28;20032;-88
2023/02/17 11:12:50;;;;;;;13.05;9.65;;;11.50;99.90;;;;;;5069068;28;20437;-87
2023/02/17 11:16:02;;;;;;;13.30;9.30;;;11.10;99.90;;;;;;5069393;22;20110;-89
2023/02/17 11:18:47;;;;;;;18.88;9.45;;;10.70;99.90;;;;;;4954003;28;20034;-87
2023/02/17 11:21:21;;;;;;;17.42;8.95;;;11.40;99.90;;;;;;5066899;28;20054;-88
2023/02/17 11:24:10;;;;;;;15.98;9.82;;;11.60;99.90;;;;;;5068709;28;20040;-90
2023/02/17 11:26:36;;;;;;;20.58;8.85;;;11.50;99.90;;;;;;5064029;28;20043;-91
2023/02/17 11:29:20;;;;;;;12.85;8.27;;;11.10;99.90;;;;;;5066265;28;20468;-90
2023/02/17 11:32:07;;;;;;;18.58;8.55;;;11.10;99.90;;;;;;5069892;28;20031;-90
2023/02/17 11:34:39;;;;;;;15.48;6.78;;;10.60;99.90;;;;;;5068934;28;20021;-89
2023/02/17 11:37:19;;;;;;;16.25;8.55;;;11.00;99.90;;;;;;5066780;28;20060;-90
2023/02/17 11:39:49;;;;;;;18.00;6.93;;;11.90;99.90;;;;;;5069326;28;20099;-90
2023/02/17 11:42:20;;;;;;;21.58;7.85;;;11.30;99.90;;;;;;5064789;28;20082;-89
2023/02/17 11:44:45;;;;;;;26.02;8.30;;;11.50;99.90;;;;;;5079861;28;20053;-89
2023/02/17 11:47:36;;;;;;;13.45;6.88;;;10.20;99.90;;;;;;5075443;28;20532;-90
2023/02/17 11:50:27;;;;;;;16.05;6.75;;;10.60;99.90;;;;;;5066065;28;20089;-89
2023/02/17 11:53:02;;;;;;;17.38;6.78;;;10.60;99.90;;;;;;5066256;28;20064;-88
2023/02/17 11:55:43;;;;;;;24.48;7.75;;;10.60;99.90;;;;;;5073995;28;20476;-89
2023/02/17 11:58:17;;;;;;;13.60;6.22;;;10.60;99.90;;;;;;5079293;28;20033;-90
2023/02/17 12:01:02;;;;;;;18.42;7.05;;;10.60;99.90;;;;;;5067126;28;20021;-91
2023/02/17 12:03:40;;;;;;;16.40;6.75;;;10.50;99.90;;;;;;5075224;28;20091;-88
2023/02/17 12:06:42;;;;;;;19.50;6.82;;;10.50;99.90;;;;;;5057428;28;20025;-91
2023/02/17 12:09:32;;;;;;;;;;;;;;;;;;;;;
2023/02/17 12:12:35;;;;;;;18.95;7.15;;;10.50;99.90;;;;;;5070891;28;20495;-92
2023/02/17 12:15:37;;;;;;;18.50;8.00;;;10.60;99.90;;;;;;5074737;28;20098;-92
2023/02/17 12:18:55;;;;;;;19.85;6.20;;;10.60;99.90;;;;;;5069593;28;20028;-91
2023/02/17 12:21:51;;;;;;;21.02;6.72;;;10.60;99.90;;;;;;5054882;28;20039;-90
2023/02/17 12:24:57;;;;;;;21.70;6.50;;;10.50;99.90;;;;;;5061734;28;20033;-90
2023/02/17 12:27:59;;;;;;;17.83;6.60;;;10.60;99.90;;;;;;5071823;28;20017;-89
2023/02/17 12:31:12;;;;;;;18.88;5.85;;;10.50;99.90;;;;;;5054162;28;20121;-89
2023/02/17 12:33:58;;;;;;;17.02;6.82;;;10.50;99.90;;;;;;5054096;28;20156;-90
2023/02/17 12:36:32;;;;;;;17.05;5.78;;;10.50;99.90;;;;;;5053968;28;20504;-89
2023/02/17 12:39:05;;;;;;;16.30;6.70;;;10.60;99.90;;;;;;5054576;28;20131;-89
2023/02/17 12:41:41;;;;;;;13.75;5.40;;;11.20;99.90;;;;;;5054670;28;20025;-90
2023/02/17 12:44:13;;;;;;;16.98;7.07;;;11.80;99.90;;;;;;5054194;28;20025;-89
2023/02/17 12:47:03;;;;;;;19.92;5.82;;;11.40;99.90;;;;;;5054081;28;20028;-90
2023/02/17 12:50:22;;;;;;;14.95;5.57;;;10.50;99.90;;;;;;5054305;28;20600;-90
2023/02/17 12:52:52;;;;;;;22.15;6.32;;;10.50;99.90;;;;;;5054351;28;20045;-89
2023/02/17 12:55:23;;;;;;;;;;;10.50;99.90;;;;;;5059453;28;20035;-89
2023/02/17 12:57:59;;;;;;;29.65;7.93;;;10.50;99.90;;;;;;5060963;28;19913;-89
2023/02/17 13:00:34;;;;;;;21.52;7.15;;;11.50;99.90;;;;;;5053663;28;20464;-89
2023/02/17 13:08:59;;;;;;;15.15;6.38;;;10.50;99.90;;;;;;5085982;28;20081;-89
2023/02/17 13:12:15;;;;;;;13.05;7.88;;;10.70;99.90;;;;;;5074838;28;20028;-91
2023/02/17 13:14:47;;;;;;;17.17;6.97;;;10.00;99.90;;;;;;5044299;28;20036;-95